sensor_id;sensor_type;location;lat;lon;timestamp;pressure;altitude;pressure_sealevel;temperature;humidity
6343;BME280;3204;42.698;23.298;2023-04-02T00:09:25;94029.84;;;9.89;62.82
6343;BME280;3204;42.698;23.298;2023-04-02T00:11:53;94021.91;;;10.13;61.90
6343;BME280;3204;42.698;23.298;2023-04-02T00:16:53;94020.25;;;9.91;62.42
6343;BME280;3204;42.698;23.298;2023-04-02T00:19:41;94015.56;;;10.00;60.98
6343;BME280;3204;42.698;23.298;2023-04-02T00:22:12;94016.81;;;10.03;61.09
6343;BME280;3204;42.698;23.298;2023-04-02T00:24:40;94014.56;;;10.13;60.59
6343;BME280;3204;42.698;23.298;2023-04-02T00:27:10;94020.34;;;10.03;60.78
6343;BME280;3204;42.698;23.298;2023-04-02T00:29:36;94012.66;;;9.85;61.33
6343;BME280;3204;42.698;23.298;2023-04-02T00:32:16;94012.53;;;10.02;60.80
6343;BME280;3204;42.698;23.298;2023-04-02T00:34:43;94010.63;;;10.02;60.36
6343;BME280;3204;42.698;23.298;2023-04-02T00:37:16;94011.47;;;9.94;60.19
6343;BME280;3204;42.698;23.298;2023-04-02T00:39:48;94007.78;;;9.99;60.75
6343;BME280;3204;42.698;23.298;2023-04-02T00:42:14;94010.94;;;10.01;59.98
6343;BME280;3204;42.698;23.298;2023-04-02T00:44:44;94008.75;;;10.23;59.22
6343;BME280;3204;42.698;23.298;2023-04-02T00:47:21;94013.63;;;10.09;59.46
6343;BME280;3204;42.698;23.298;2023-04-02T00:49:50;94014.13;;;10.03;59.30
6343;BME280;3204;42.698;23.298;2023-04-02T00:52:23;94013.44;;;10.14;60.07
6343;BME280;3204;42.698;23.298;2023-04-02T00:57:41;94011.41;;;10.03;59.99
6343;BME280;3204;42.698;23.298;2023-04-02T01:02:40;94014.31;;;10.06;59.55
6343;BME280;3204;42.698;23.298;2023-04-02T01:05:26;94013.13;;;10.16;59.13
6343;BME280;3204;42.698;23.298;2023-04-02T01:08:06;94012.84;;;10.09;60.03
6343;BME280;3204;42.698;23.298;2023-04-02T01:11:06;94010.88;;;10.18;58.86
6343;BME280;3204;42.698;23.298;2023-04-02T01:18:39;94014.91;;;10.03;59.25
6343;BME280;3204;42.698;23.298;2023-04-02T01:21:22;94010.78;;;10.06;59.13
6343;BME280;3204;42.698;23.298;2023-04-02T01:26:58;94012.19;;;10.12;59.00
6343;BME280;3204;42.698;23.298;2023-04-02T01:29:37;94021.31;;;10.07;59.46
6343;BME280;3204;42.698;23.298;2023-04-02T01:32:10;94025.53;;;10.17;59.33
6343;BME280;3204;42.698;23.298;2023-04-02T01:34:37;94023.00;;;10.12;61.31
6343;BME280;3204;42.698;23.298;2023-04-02T01:45:23;94031.13;;;8.82;68.80
6343;BME280;3204;42.698;23.298;2023-04-02T01:47:49;94027.47;;;8.70;69.04
6343;BME280;3204;42.698;23.298;2023-04-02T01:52:48;94027.00;;;8.51;69.70
6343;BME280;3204;42.698;23.298;2023-04-02T01:55:18;94024.28;;;8.42;70.87
6343;BME280;3204;42.698;23.298;2023-04-02T01:57:48;94023.50;;;8.33;71.68
6343;BME280;3204;42.698;23.298;2023-04-02T02:00:16;94020.03;;;8.33;71.31
6343;BME280;3204;42.698;23.298;2023-04-02T02:02:46;94018.72;;;8.22;72.73
6343;BME280;3204;42.698;23.298;2023-04-02T02:05:14;94020.28;;;8.06;73.19
6343;BME280;3204;42.698;23.298;2023-04-02T02:07:42;94012.63;;;8.08;73.25
6343;BME280;3204;42.698;23.298;2023-04-02T02:10:16;94021.84;;;8.07;73.40
6343;BME280;3204;42.698;23.298;2023-04-02T02:12:43;94017.88;;;8.04;74.38
6343;BME280;3204;42.698;23.298;2023-04-02T02:15:19;94022.00;;;7.93;74.62
6343;BME280;3204;42.698;23.298;2023-04-02T02:17:45;94017.88;;;7.87;75.13
6343;BME280;3204;42.698;23.298;2023-04-02T02:20:12;94020.06;;;7.77;75.60
6343;BME280;3204;42.698;23.298;2023-04-02T02:22:48;94011.97;;;7.77;75.69
6343;BME280;3204;42.698;23.298;2023-04-02T02:25:23;94008.00;;;7.83;75.02
6343;BME280;3204;42.698;23.298;2023-04-02T02:30:30;94010.75;;;8.00;73.87
6343;BME280;3204;42.698;23.298;2023-04-02T02:38:50;94019.34;;;8.19;73.00
6343;BME280;3204;42.698;23.298;2023-04-02T02:44:10;94022.88;;;8.28;73.40
6343;BME280;3204;42.698;23.298;2023-04-02T02:46:51;94011.75;;;8.38;72.27
6343;BME280;3204;42.698;23.298;2023-04-02T02:49:26;94013.66;;;8.29;72.52
6343;BME280;3204;42.698;23.298;2023-04-02T02:52:02;94012.06;;;8.36;72.16
6343;BME280;3204;42.698;23.298;2023-04-02T02:54:33;94013.00;;;8.32;71.89
6343;BME280;3204;42.698;23.298;2023-04-02T02:57:03;94016.81;;;8.31;71.85
6343;BME280;3204;42.698;23.298;2023-04-02T02:59:31;94023.03;;;8.40;71.17
6343;BME280;3204;42.698;23.298;2023-04-02T03:01:58;94016.84;;;8.48;71.93
6343;BME280;3204;42.698;23.298;2023-04-02T03:04:25;94018.13;;;8.42;71.20
6343;BME280;3204;42.698;23.298;2023-04-02T03:06:56;94018.88;;;8.51;71.01
6343;BME280;3204;42.698;23.298;2023-04-02T03:09:33;94022.53;;;8.72;70.43
6343;BME280;3204;42.698;23.298;2023-04-02T03:14:46;94030.50;;;8.43;70.80
6343;BME280;3204;42.698;23.298;2023-04-02T03:17:59;94027.44;;;8.19;71.19
6343;BME280;3204;42.698;23.298;2023-04-02T03:23:45;94032.72;;;8.24;72.10
6343;BME280;3204;42.698;23.298;2023-04-02T03:26:16;94025.81;;;8.18;71.54
6343;BME280;3204;42.698;23.298;2023-04-02T03:28:51;94025.09;;;8.26;71.66
6343;BME280;3204;42.698;23.298;2023-04-02T03:31:33;94024.75;;;8.19;70.86
6343;BME280;3204;42.698;23.298;2023-04-02T03:34:10;94027.44;;;8.19;71.28
6343;BME280;3204;42.698;23.298;2023-04-02T03:36:48;94029.94;;;7.98;71.25
6343;BME280;3204;42.698;23.298;2023-04-02T03:39:22;94029.66;;;8.08;72.32
6343;BME280;3204;42.698;23.298;2023-04-02T03:44:29;94039.19;;;8.14;70.73
6343;BME280;3204;42.698;23.298;2023-04-02T03:47:09;94028.88;;;8.16;71.87
6343;BME280;3204;42.698;23.298;2023-04-02T03:49:41;94039.34;;;8.18;72.36
6343;BME280;3204;42.698;23.298;2023-04-02T03:52:09;94032.22;;;8.22;72.57
6343;BME280;3204;42.698;23.298;2023-04-02T03:54:37;94035.34;;;8.15;71.65
6343;BME280;3204;42.698;23.298;2023-04-02T03:57:02;94038.22;;;8.10;72.54
6343;BME280;3204;42.698;23.298;2023-04-02T03:59:47;94036.28;;;7.94;73.08
6343;BME280;3204;42.698;23.298;2023-04-02T04:04:53;94031.16;;;7.75;73.06
6343;BME280;3204;42.698;23.298;2023-04-02T04:07:52;94033.16;;;7.53;74.45
6343;BME280;3204;42.698;23.298;2023-04-02T04:10:24;94036.31;;;7.55;74.42
6343;BME280;3204;42.698;23.298;2023-04-02T04:12:52;94046.22;;;7.68;74.68
6343;BME280;3204;42.698;23.298;2023-04-02T04:15:20;94042.56;;;7.72;74.44
6343;BME280;3204;42.698;23.298;2023-04-02T04:17:59;94050.50;;;7.69;74.82
6343;BME280;3204;42.698;23.298;2023-04-02T04:20:41;94056.03;;;7.64;73.39
6343;BME280;3204;42.698;23.298;2023-04-02T04:23:31;94059.56;;;7.73;73.51
6343;BME280;3204;42.698;23.298;2023-04-02T04:31:43;94063.41;;;7.41;75.04
6343;BME280;3204;42.698;23.298;2023-04-02T04:34:14;94060.44;;;7.21;75.27
6343;BME280;3204;42.698;23.298;2023-04-02T04:36:44;94062.59;;;7.10;76.31
6343;BME280;3204;42.698;23.298;2023-04-02T04:39:22;94067.47;;;7.00;76.28
6343;BME280;3204;42.698;23.298;2023-04-02T04:41:54;94079.66;;;6.97;76.83
6343;BME280;3204;42.698;23.298;2023-04-02T04:44:24;94063.97;;;6.99;77.30
6343;BME280;3204;42.698;23.298;2023-04-02T04:47:10;94078.59;;;7.07;76.19
6343;BME280;3204;42.698;23.298;2023-04-02T04:49:42;94073.75;;;7.17;76.37
6343;BME280;3204;42.698;23.298;2023-04-02T04:52:22;94068.94;;;7.06;76.82
6343;BME280;3204;42.698;23.298;2023-04-02T04:54:48;94079.09;;;7.09;76.86
6343;BME280;3204;42.698;23.298;2023-04-02T04:57:40;94075.22;;;7.01;77.33
6343;BME280;3204;42.698;23.298;2023-04-02T05:00:20;94067.81;;;7.07;76.17
6343;BME280;3204;42.698;23.298;2023-04-02T05:02:58;94082.50;;;7.23;76.13
6343;BME280;3204;42.698;23.298;2023-04-02T05:05:32;94076.31;;;7.22;76.70
6343;BME280;3204;42.698;23.298;2023-04-02T05:08:14;94076.88;;;7.33;75.92
6343;BME280;3204;42.698;23.298;2023-04-02T05:11:01;94071.63;;;7.36;75.91
6343;BME280;3204;42.698;23.298;2023-04-02T05:13:36;94085.31;;;7.48;75.13
6343;BME280;3204;42.698;23.298;2023-04-02T05:19:20;94069.19;;;7.57;74.98
6343;BME280;3204;42.698;23.298;2023-04-02T05:24:27;94098.50;;;7.50;74.83
6343;BME280;3204;42.698;23.298;2023-04-02T05:27:01;94093.81;;;7.64;75.00
6343;BME280;3204;42.698;23.298;2023-04-02T05:29:36;94095.75;;;7.72;74.66
6343;BME280;3204;42.698;23.298;2023-04-02T05:32:12;94101.78;;;7.69;73.73
6343;BME280;3204;42.698;23.298;2023-04-02T05:34:41;94103.88;;;7.72;73.07
6343;BME280;3204;42.698;23.298;2023-04-02T05:37:18;94101.09;;;7.63;73.61
6343;BME280;3204;42.698;23.298;2023-04-02T05:39:50;94102.75;;;7.73;73.34
6343;BME280;3204;42.698;23.298;2023-04-02T05:42:26;94106.44;;;7.85;74.19
6343;BME280;3204;42.698;23.298;2023-04-02T05:45:30;94102.84;;;8.07;73.66
6343;BME280;3204;42.698;23.298;2023-04-02T05:48:00;94102.56;;;8.17;73.52
6343;BME280;3204;42.698;23.298;2023-04-02T05:50:32;94113.00;;;8.40;71.62
6343;BME280;3204;42.698;23.298;2023-04-02T05:53:18;94115.22;;;8.64;71.22
6343;BME280;3204;42.698;23.298;2023-04-02T05:58:23;94126.06;;;9.15;69.45
6343;BME280;3204;42.698;23.298;2023-04-02T06:00:59;94120.59;;;9.40;69.02
6343;BME280;3204;42.698;23.298;2023-04-02T06:03:44;94119.56;;;9.70;67.46
6343;BME280;3204;42.698;23.298;2023-04-02T06:06:26;94114.47;;;9.77;65.72
6343;BME280;3204;42.698;23.298;2023-04-02T06:09:04;94119.47;;;9.96;66.00
6343;BME280;3204;42.698;23.298;2023-04-02T06:11:39;94107.34;;;10.10;65.12
6343;BME280;3204;42.698;23.298;2023-04-02T06:14:10;94121.03;;;10.43;63.96
6343;BME280;3204;42.698;23.298;2023-04-02T06:16:37;94117.75;;;10.58;63.12
6343;BME280;3204;42.698;23.298;2023-04-02T06:19:07;94119.03;;;10.81;63.46
6343;BME280;3204;42.698;23.298;2023-04-02T06:21:47;94111.75;;;11.14;62.35
6343;BME280;3204;42.698;23.298;2023-04-02T06:24:19;94120.50;;;11.52;61.40
6343;BME280;3204;42.698;23.298;2023-04-02T06:26:59;94119.84;;;11.87;60.00
6343;BME280;3204;42.698;23.298;2023-04-02T06:29:41;94114.88;;;12.13;59.40
6343;BME280;3204;42.698;23.298;2023-04-02T06:32:10;94116.66;;;11.53;60.27
6343;BME280;3204;42.698;23.298;2023-04-02T06:34:37;94111.84;;;11.70;61.05
6343;BME280;3204;42.698;23.298;2023-04-02T06:37:13;94118.03;;;11.91;61.20
6343;BME280;3204;42.698;23.298;2023-04-02T06:39:41;94118.97;;;12.19;59.99
6343;BME280;3204;42.698;23.298;2023-04-02T06:42:16;94108.66;;;12.49;58.13
6343;BME280;3204;42.698;23.298;2023-04-02T06:44:43;94115.34;;;12.63;58.69
6343;BME280;3204;42.698;23.298;2023-04-02T06:47:15;94128.47;;;12.73;58.05
6343;BME280;3204;42.698;23.298;2023-04-02T06:49:51;94126.63;;;12.89;57.32
6343;BME280;3204;42.698;23.298;2023-04-02T06:52:23;94128.25;;;12.90;58.15
6343;BME280;3204;42.698;23.298;2023-04-02T06:54:49;94132.38;;;13.24;57.14
6343;BME280;3204;42.698;23.298;2023-04-02T06:57:15;94130.84;;;13.66;56.30
6343;BME280;3204;42.698;23.298;2023-04-02T06:59:41;94131.19;;;14.07;54.92
6343;BME280;3204;42.698;23.298;2023-04-02T07:02:29;94130.25;;;14.15;53.23
6343;BME280;3204;42.698;23.298;2023-04-02T07:05:01;94131.25;;;14.23;53.51
6343;BME280;3204;42.698;23.298;2023-04-02T07:07:27;94140.69;;;14.41;53.11
6343;BME280;3204;42.698;23.298;2023-04-02T07:09:53;94129.38;;;14.73;52.79
6343;BME280;3204;42.698;23.298;2023-04-02T07:12:22;94134.06;;;14.73;51.95
6343;BME280;3204;42.698;23.298;2023-04-02T07:14:49;94135.34;;;14.17;53.90
6343;BME280;3204;42.698;23.298;2023-04-02T07:17:16;94142.09;;;14.07;53.09
6343;BME280;3204;42.698;23.298;2023-04-02T07:19:42;94142.25;;;14.57;52.73
6343;BME280;3204;42.698;23.298;2023-04-02T07:22:10;94140.22;;;14.70;48.87
6343;BME280;3204;42.698;23.298;2023-04-02T07:24:35;94138.78;;;14.76;49.01
6343;BME280;3204;42.698;23.298;2023-04-02T07:27:01;94149.59;;;15.03;48.49
6343;BME280;3204;42.698;23.298;2023-04-02T07:29:26;94156.88;;;15.68;47.04
6343;BME280;3204;42.698;23.298;2023-04-02T07:31:52;94146.06;;;16.13;46.64
6343;BME280;3204;42.698;23.298;2023-04-02T07:34:18;94161.28;;;16.33;45.46
6343;BME280;3204;42.698;23.298;2023-04-02T07:36:43;94155.28;;;16.47;44.30
6343;BME280;3204;42.698;23.298;2023-04-02T07:39:09;94145.53;;;16.95;43.74
6343;BME280;3204;42.698;23.298;2023-04-02T07:41:56;94154.13;;;17.45;43.68
6343;BME280;3204;42.698;23.298;2023-04-02T07:44:22;94157.44;;;17.87;43.17
6343;BME280;3204;42.698;23.298;2023-04-02T07:46:48;94162.22;;;17.94;42.26
6343;BME280;3204;42.698;23.298;2023-04-02T07:49:13;94152.19;;;17.75;42.48
6343;BME280;3204;42.698;23.298;2023-04-02T07:51:38;94160.88;;;18.14;42.13
6343;BME280;3204;42.698;23.298;2023-04-02T07:54:04;94161.63;;;18.44;40.86
6343;BME280;3204;42.698;23.298;2023-04-02T07:56:29;94167.66;;;18.23;40.35
6343;BME280;3204;42.698;23.298;2023-04-02T07:58:56;94157.16;;;18.32;40.62
6343;BME280;3204;42.698;23.298;2023-04-02T08:01:25;94161.44;;;18.30;40.13
6343;BME280;3204;42.698;23.298;2023-04-02T08:03:55;94154.34;;;18.25;40.89
6343;BME280;3204;42.698;23.298;2023-04-02T08:06:22;94162.91;;;18.53;39.34
6343;BME280;3204;42.698;23.298;2023-04-02T08:08:48;94165.22;;;18.51;39.60
6343;BME280;3204;42.698;23.298;2023-04-02T08:11:14;94175.25;;;18.33;39.96
6343;BME280;3204;42.698;23.298;2023-04-02T08:13:39;94171.41;;;18.81;40.22
6343;BME280;3204;42.698;23.298;2023-04-02T08:16:06;94171.31;;;19.14;39.16
6343;BME280;3204;42.698;23.298;2023-04-02T08:18:32;94168.06;;;19.52;38.84
6343;BME280;3204;42.698;23.298;2023-04-02T08:20:58;94165.94;;;20.00;38.15
6343;BME280;3204;42.698;23.298;2023-04-02T08:23:24;94163.69;;;20.19;37.58
6343;BME280;3204;42.698;23.298;2023-04-02T08:25:51;94166.41;;;20.12;38.45
6343;BME280;3204;42.698;23.298;2023-04-02T08:28:17;94175.38;;;20.02;38.66
6343;BME280;3204;42.698;23.298;2023-04-02T08:30:43;94173.50;;;19.45;39.39
6343;BME280;3204;42.698;23.298;2023-04-02T08:33:08;94185.81;;;19.11;39.91
6343;BME280;3204;42.698;23.298;2023-04-02T08:35:34;94177.31;;;18.43;40.28
6343;BME280;3204;42.698;23.298;2023-04-02T08:37:59;94180.00;;;18.07;40.76
6343;BME280;3204;42.698;23.298;2023-04-02T08:40:28;94181.97;;;18.06;42.63
6343;BME280;3204;42.698;23.298;2023-04-02T08:46:00;94181.47;;;17.97;41.95
6343;BME280;3204;42.698;23.298;2023-04-02T08:48:31;94180.03;;;17.48;42.15
6343;BME280;3204;42.698;23.298;2023-04-02T08:50:58;94182.59;;;17.11;42.83
6343;BME280;3204;42.698;23.298;2023-04-02T08:53:28;94172.59;;;17.26;42.52
6343;BME280;3204;42.698;23.298;2023-04-02T08:56:17;94176.53;;;17.80;42.57
6343;BME280;3204;42.698;23.298;2023-04-02T08:58:47;94175.31;;;18.07;42.74
6343;BME280;3204;42.698;23.298;2023-04-02T09:04:18;94171.06;;;18.46;41.09
6343;BME280;3204;42.698;23.298;2023-04-02T09:06:46;94170.81;;;18.25;41.76
6343;BME280;3204;42.698;23.298;2023-04-02T09:09:13;94181.44;;;17.64;41.69
6343;BME280;3204;42.698;23.298;2023-04-02T09:14:13;94175.09;;;17.90;41.56
6343;BME280;3204;42.698;23.298;2023-04-02T09:16:43;94176.78;;;17.68;41.95
6343;BME280;3204;42.698;23.298;2023-04-02T09:19:36;94175.44;;;17.55;41.58
6343;BME280;3204;42.698;23.298;2023-04-02T09:22:23;94164.13;;;17.90;42.22
6343;BME280;3204;42.698;23.298;2023-04-02T09:24:54;94172.66;;;18.14;41.74
6343;BME280;3204;42.698;23.298;2023-04-02T09:27:23;94177.06;;;18.22;41.25
6343;BME280;3204;42.698;23.298;2023-04-02T09:35:10;94168.47;;;17.35;41.97
6343;BME280;3204;42.698;23.298;2023-04-02T09:37:37;94160.97;;;17.32;42.08
6343;BME280;3204;42.698;23.298;2023-04-02T09:42:44;94168.69;;;17.49;41.61
6343;BME280;3204;42.698;23.298;2023-04-02T09:45:19;94162.72;;;17.44;41.67
6343;BME280;3204;42.698;23.298;2023-04-02T09:47:46;94149.69;;;17.37;41.66
6343;BME280;3204;42.698;23.298;2023-04-02T09:52:48;94147.16;;;16.51;42.53
6343;BME280;3204;42.698;23.298;2023-04-02T09:57:40;94138.84;;;16.92;42.44
6343;BME280;3204;42.698;23.298;2023-04-02T10:00:22;94147.25;;;17.32;42.23
6343;BME280;3204;42.698;23.298;2023-04-02T10:03:18;94144.34;;;17.44;41.96
6343;BME280;3204;42.698;23.298;2023-04-02T10:05:46;94143.97;;;17.46;41.58
6343;BME280;3204;42.698;23.298;2023-04-02T10:08:24;94144.75;;;17.20;41.12
6343;BME280;3204;42.698;23.298;2023-04-02T10:10:54;94145.25;;;17.55;41.07
6343;BME280;3204;42.698;23.298;2023-04-02T10:13:32;94139.56;;;17.67;41.33
6343;BME280;3204;42.698;23.298;2023-04-02T10:18:48;94149.34;;;17.68;41.16
6343;BME280;3204;42.698;23.298;2023-04-02T10:21:17;94142.31;;;17.41;41.64
6343;BME280;3204;42.698;23.298;2023-04-02T10:23:44;94138.13;;;17.80;41.60
6343;BME280;3204;42.698;23.298;2023-04-02T10:26:28;94138.91;;;18.47;40.97
6343;BME280;3204;42.698;23.298;2023-04-02T10:40:08;94133.66;;;19.86;37.78
6343;BME280;3204;42.698;23.298;2023-04-02T10:45:53;94134.69;;;21.55;35.26
6343;BME280;3204;42.698;23.298;2023-04-02T10:54:17;94121.28;;;20.55;35.71
6343;BME280;3204;42.698;23.298;2023-04-02T10:56:46;94129.25;;;20.92;36.07
6343;BME280;3204;42.698;23.298;2023-04-02T10:59:24;94125.22;;;20.72;35.31
6343;BME280;3204;42.698;23.298;2023-04-02T11:01:54;94123.31;;;20.90;36.19
6343;BME280;3204;42.698;23.298;2023-04-02T11:04:29;94109.09;;;21.26;35.21
6343;BME280;3204;42.698;23.298;2023-04-02T11:07:03;94119.34;;;20.80;35.74
6343;BME280;3204;42.698;23.298;2023-04-02T11:09:31;94110.66;;;21.45;35.36
6343;BME280;3204;42.698;23.298;2023-04-02T11:11:59;94123.97;;;21.85;33.75
6343;BME280;3204;42.698;23.298;2023-04-02T11:14:29;94119.38;;;22.47;33.35
6343;BME280;3204;42.698;23.298;2023-04-02T11:16:58;94125.91;;;22.77;32.59
6343;BME280;3204;42.698;23.298;2023-04-02T11:19:32;94134.56;;;22.83;32.44
6343;BME280;3204;42.698;23.298;2023-04-02T11:22:20;94135.59;;;23.03;31.56
6343;BME280;3204;42.698;23.298;2023-04-02T11:24:50;94132.16;;;22.85;31.08
6343;BME280;3204;42.698;23.298;2023-04-02T11:27:31;94119.38;;;21.22;32.89
6343;BME280;3204;42.698;23.298;2023-04-02T11:30:23;94113.44;;;21.20;33.08
6343;BME280;3204;42.698;23.298;2023-04-02T11:32:50;94115.81;;;21.22;33.16
6343;BME280;3204;42.698;23.298;2023-04-02T11:38:01;94111.84;;;21.40;33.19
6343;BME280;3204;42.698;23.298;2023-04-02T11:40:43;94103.63;;;21.16;33.36
6343;BME280;3204;42.698;23.298;2023-04-02T11:48:42;94102.53;;;22.17;32.44
6343;BME280;3204;42.698;23.298;2023-04-02T11:53:50;94103.53;;;22.58;31.89
6343;BME280;3204;42.698;23.298;2023-04-02T11:59:08;94102.88;;;22.29;32.09
6343;BME280;3204;42.698;23.298;2023-04-02T12:10:21;94110.22;;;20.34;33.67
6343;BME280;3204;42.698;23.298;2023-04-02T12:12:48;94092.16;;;20.65;33.77
6343;BME280;3204;42.698;23.298;2023-04-02T12:20:37;94089.66;;;20.07;33.70
6343;BME280;3204;42.698;23.298;2023-04-02T12:23:03;94106.69;;;20.37;34.02
6343;BME280;3204;42.698;23.298;2023-04-02T12:25:33;94107.53;;;20.76;33.35
6343;BME280;3204;42.698;23.298;2023-04-02T12:30:39;94092.97;;;20.69;33.29
6343;BME280;3204;42.698;23.298;2023-04-02T12:33:33;94092.97;;;21.07;33.15
6343;BME280;3204;42.698;23.298;2023-04-02T12:36:06;94100.47;;;21.07;32.56
6343;BME280;3204;42.698;23.298;2023-04-02T12:41:29;94082.81;;;19.63;34.08
6343;BME280;3204;42.698;23.298;2023-04-02T12:44:05;94083.19;;;19.54;34.35
6343;BME280;3204;42.698;23.298;2023-04-02T12:46:33;94080.78;;;19.42;34.40
6343;BME280;3204;42.698;23.298;2023-04-02T12:51:38;94071.34;;;18.89;34.89
6343;BME280;3204;42.698;23.298;2023-04-02T12:54:04;94071.25;;;19.29;34.66
6343;BME280;3204;42.698;23.298;2023-04-02T12:56:29;94066.44;;;19.16;34.68
6343;BME280;3204;42.698;23.298;2023-04-02T12:58:59;94071.69;;;18.81;35.08
6343;BME280;3204;42.698;23.298;2023-04-02T13:01:30;94064.88;;;19.18;34.68
6343;BME280;3204;42.698;23.298;2023-04-02T13:04:09;94054.63;;;19.90;33.74
6343;BME280;3204;42.698;23.298;2023-04-02T13:06:39;94066.41;;;19.87;33.26
6343;BME280;3204;42.698;23.298;2023-04-02T13:09:32;94063.69;;;20.01;33.39
6343;BME280;3204;42.698;23.298;2023-04-02T13:11:58;94058.84;;;19.63;34.14
6343;BME280;3204;42.698;23.298;2023-04-02T13:14:25;94058.19;;;19.94;33.66
6343;BME280;3204;42.698;23.298;2023-04-02T13:16:51;94064.59;;;20.58;32.93
6343;BME280;3204;42.698;23.298;2023-04-02T13:21:42;94062.63;;;21.14;32.34
6343;BME280;3204;42.698;23.298;2023-04-02T13:24:24;94067.25;;;21.59;31.54
6343;BME280;3204;42.698;23.298;2023-04-02T13:26:53;94059.47;;;21.23;31.28
6343;BME280;3204;42.698;23.298;2023-04-02T13:29:34;94050.03;;;21.03;31.14
6343;BME280;3204;42.698;23.298;2023-04-02T13:32:09;94055.91;;;21.29;31.18
6343;BME280;3204;42.698;23.298;2023-04-02T13:34:36;94052.75;;;21.27;30.90
6343;BME280;3204;42.698;23.298;2023-04-02T13:37:02;94060.97;;;21.48;30.39
6343;BME280;3204;42.698;23.298;2023-04-02T13:39:27;94061.44;;;21.26;30.41
6343;BME280;3204;42.698;23.298;2023-04-02T13:41:59;94047.66;;;20.87;30.49
6343;BME280;3204;42.698;23.298;2023-04-02T13:44:33;94048.88;;;20.90;30.58
6343;BME280;3204;42.698;23.298;2023-04-02T13:47:01;94055.06;;;21.43;29.90
6343;BME280;3204;42.698;23.298;2023-04-02T13:49:27;94047.03;;;21.90;29.49
6343;BME280;3204;42.698;23.298;2023-04-02T13:51:58;94045.25;;;21.35;29.50
6343;BME280;3204;42.698;23.298;2023-04-02T13:54:44;94041.75;;;20.43;30.13
6343;BME280;3204;42.698;23.298;2023-04-02T13:57:13;94044.88;;;20.31;30.83
6343;BME280;3204;42.698;23.298;2023-04-02T13:59:38;94037.03;;;20.19;31.05
6343;BME280;3204;42.698;23.298;2023-04-02T14:02:24;94038.19;;;20.15;31.25
6343;BME280;3204;42.698;23.298;2023-04-02T14:05:04;94048.66;;;19.64;31.89
6343;BME280;3204;42.698;23.298;2023-04-02T14:07:49;94046.16;;;19.41;32.35
6343;BME280;3204;42.698;23.298;2023-04-02T14:10:24;94048.06;;;19.23;32.13
6343;BME280;3204;42.698;23.298;2023-04-02T14:27:08;94043.19;;;18.49;33.77
6343;BME280;3204;42.698;23.298;2023-04-02T14:35:23;94032.66;;;19.19;32.74
6343;BME280;3204;42.698;23.298;2023-04-02T14:43:26;94023.34;;;19.30;32.31
6343;BME280;3204;42.698;23.298;2023-04-02T14:46:02;94033.56;;;19.33;32.23
6343;BME280;3204;42.698;23.298;2023-04-02T14:53:57;94040.06;;;19.04;32.39
6343;BME280;3204;42.698;23.298;2023-04-02T14:56:24;94031.09;;;19.14;32.62
6343;BME280;3204;42.698;23.298;2023-04-02T15:01:37;94040.16;;;19.22;32.04
6343;BME280;3204;42.698;23.298;2023-04-02T15:04:11;94043.41;;;19.41;31.67
6343;BME280;3204;42.698;23.298;2023-04-02T15:06:48;94036.00;;;19.52;31.73
6343;BME280;3204;42.698;23.298;2023-04-02T15:11:49;94046.38;;;19.97;31.44
6343;BME280;3204;42.698;23.298;2023-04-02T15:14:17;94052.75;;;20.15;30.81
6343;BME280;3204;42.698;23.298;2023-04-02T15:16:43;94049.22;;;20.18;30.95
6343;BME280;3204;42.698;23.298;2023-04-02T15:19:11;94054.31;;;20.16;31.10
6343;BME280;3204;42.698;23.298;2023-04-02T15:30:24;94052.25;;;19.89;31.41
6343;BME280;3204;42.698;23.298;2023-04-02T15:32:48;94055.22;;;19.45;31.59
6343;BME280;3204;42.698;23.298;2023-04-02T15:35:30;94057.78;;;19.10;31.72
6343;BME280;3204;42.698;23.298;2023-04-02T15:38:10;94052.06;;;18.79;32.14
6343;BME280;3204;42.698;23.298;2023-04-02T15:40:43;94048.84;;;18.70;31.92
6343;BME280;3204;42.698;23.298;2023-04-02T15:52:04;94060.22;;;18.68;31.52
6343;BME280;3204;42.698;23.298;2023-04-02T16:00:03;94077.06;;;18.63;31.50
6343;BME280;3204;42.698;23.298;2023-04-02T16:10:40;94071.47;;;17.76;32.64
6343;BME280;3204;42.698;23.298;2023-04-02T16:15:53;94075.97;;;17.58;32.70
6343;BME280;3204;42.698;23.298;2023-04-02T16:21:25;94072.47;;;17.32;33.24
6343;BME280;3204;42.698;23.298;2023-04-02T16:23:53;94077.69;;;17.14;33.23
6343;BME280;3204;42.698;23.298;2023-04-02T16:29:06;94078.94;;;16.91;33.46
6343;BME280;3204;42.698;23.298;2023-04-02T16:31:48;94073.59;;;16.75;33.60
6343;BME280;3204;42.698;23.298;2023-04-02T16:34:37;94076.25;;;16.68;33.83
6343;BME280;3204;42.698;23.298;2023-04-02T16:38:01;94079.06;;;16.49;34.04
6343;BME280;3204;42.698;23.298;2023-04-02T16:40:32;94085.38;;;16.30;34.65
6343;BME280;3204;42.698;23.298;2023-04-02T16:43:29;94087.69;;;16.28;34.96
6343;BME280;3204;42.698;23.298;2023-04-02T16:46:04;94088.78;;;16.24;34.91
6343;BME280;3204;42.698;23.298;2023-04-02T16:48:42;94081.16;;;16.14;34.92
6343;BME280;3204;42.698;23.298;2023-04-02T16:54:17;94092.50;;;16.12;35.62
6343;BME280;3204;42.698;23.298;2023-04-02T17:15:35;94114.94;;;15.61;37.61
6343;BME280;3204;42.698;23.298;2023-04-02T17:18:08;94116.41;;;15.55;37.62
6343;BME280;3204;42.698;23.298;2023-04-02T17:20:37;94116.69;;;15.50;38.00
6343;BME280;3204;42.698;23.298;2023-04-02T17:23:03;94115.75;;;15.42;37.89
6343;BME280;3204;42.698;23.298;2023-04-02T17:25:32;94114.81;;;15.35;38.09
6343;BME280;3204;42.698;23.298;2023-04-02T17:28:00;94120.88;;;15.28;38.90
6343;BME280;3204;42.698;23.298;2023-04-02T17:30:37;94126.56;;;15.20;39.34
6343;BME280;3204;42.698;23.298;2023-04-02T17:33:15;94131.84;;;15.13;39.38
6343;BME280;3204;42.698;23.298;2023-04-02T17:41:32;94148.19;;;14.94;39.64
6343;BME280;3204;42.698;23.298;2023-04-02T17:47:06;94156.94;;;14.84;40.50
6343;BME280;3204;42.698;23.298;2023-04-02T17:49:43;94155.09;;;14.72;41.29
6343;BME280;3204;42.698;23.298;2023-04-02T17:52:22;94165.59;;;14.70;41.15
6343;BME280;3204;42.698;23.298;2023-04-02T17:57:20;94172.09;;;14.66;41.71
6343;BME280;3204;42.698;23.298;2023-04-02T18:05:37;94182.56;;;14.33;42.40
6343;BME280;3204;42.698;23.298;2023-04-02T18:08:34;94178.19;;;14.16;42.86
6343;BME280;3204;42.698;23.298;2023-04-02T18:11:11;94190.84;;;14.09;43.19
6343;BME280;3204;42.698;23.298;2023-04-02T18:13:44;94196.56;;;14.04;43.38